Savanna, IL

8:26 AM CST on February 27, 2015 (GMT -0600)
Tri-Township | Change Station
CLOSE
Current Station
Airport
Location: Savanna,
Elevation: 617 ft
Nearby Weather Stations

Elev 617 ft 42.05 °N, 90.11 °W | Updated 11 minutes ago

Partly Cloudy
Partly Cloudy
-14 °F
Feels Like -14 °F
N
0
Wind Variable Wind from North

Today
High -- | Low -- °F
--% Chance of Precip.
Yesterday
High -- | Low -- °F
Precip. -- in
6:39 AM 5:47 PM
Waxing Gibbous, 69% visible
Pressure 30.62 in
Visibility 7.0 miles
Clouds Clear
Dew Point -20 °F
Humidity 76%
Rainfall 0.00 in
Snow Depth Not available.
UV 1 out of 12
Pollen .40 out of 12
Air Quality Not available.
Flu Activity Not available.
METAR KSFY 271415Z AUTO 00000KT 7SM CLR M25/M29 A3062 RMK AO2 T12551286

More Conditions Fewer Conditions

Pressure 30.62 in
Visibility 7.0 miles
Clouds Clear
Dew Point -20 °F
Humidity 76%
Rainfall 0.00 in
Snow Depth Not available.
UV 1 out of 12
Pollen .40 out of 12
Air Quality Not available.
Flu Activity Not available.
METAR KSFY 271415Z AUTO 00000KT 7SM CLR M25/M29 A3062 RMK AO2 T12551286

More Conditions Fewer Conditions

10-Day Weather Forecast

Almanac

Astronomy

Feb. 27, 2015 Rise Set
Actual Time
Civil Twilight
Nautical Twilight
Astronomical Twilight
Moon
Length of Visible Light
Length of Day
Tomorrow will be .
, % of the Moon is Illuminated

Today's Extremes

State Highs State Lows

Community

WunderPhotos

Upload Photos

1,800,683 photos uploaded!

WunderBlogs® & News

Nearby

Air Quality

  Air Quality AQ Index Pollutant
Not available.

Snow Depth

Station Depth Elevation

Earthquake Activity

City Distance Mag. Time & Date
Minimum magnitude displayed is 2.5.

Coastal Water Temperatures

Place Temperature

Nearby Weather Stations

Wind Chill Advisory
Statement as of 2:40 AM CST on February 27, 2015

... Wind Chill Advisory remains in effect until 9 am CST this
morning...

* timing... now until 9 am CST this morning.

* Wind chill readings... as low as 27 below.

* Temperatures... 6 below to 13 below zero.

* Winds... northwest 5 mph or less.

* Impacts... frost bite and hypothermia may occur if precautions
are not taken.

Precautionary/preparedness actions...

A Wind Chill Advisory means that very cold air and wind will
combine to generate low wind chills... resulting in frost bite and
hypothermia if precautions are not taken. If you must venture
outdoors... dress in layers covering exposed skin. Frostbite will
occur in as few as 30 minutes in these conditions.